Time;durP1;ratioP1;P1;durP2;ratioP2;P2;SDS_P1;SDS_P2;PMS_P1;PMS_P2;Temp;Humidity;BMP_temperature;BMP_pressure;BME280_temperature;BME280_humidity;BME280_pressure;Samples;Min_cycle;Max_cycle;Signal;HPM_P1;HPM_P2
2021/12/04 00:01:09;;;;;;;;;7.50;5.25;;;;;11.02;81.46;99351.00;5030662;28;45156;-62
2021/12/04 00:03:36;;;;;;;;;4.00;4.00;;;;;11.23;81.42;99375.09;5031640;28;45008;-63
2021/12/04 00:06:06;;;;;;;;;4.75;4.00;;;;;11.27;81.19;99370.69;5031702;28;45913;-64
2021/12/04 00:08:35;;;;;;;;;1.00;1.00;;;;;11.13;81.22;99333.22;5031016;28;45201;-58
2021/12/04 00:11:01;;;;;;;;;0.75;0.75;;;;;11.32;82.16;99363.56;5029028;28;45513;-61
2021/12/04 00:13:26;;;;;;;;;0.00;0.00;;;;;11.35;81.79;99355.53;5030763;28;45179;-63
2021/12/04 00:15:52;;;;;;;;;1.25;0.75;;;;;10.92;82.14;99269.06;5030877;28;45343;-62
2021/12/04 00:18:17;;;;;;;;;0.00;0.00;;;;;11.39;82.47;99343.06;5031499;28;45481;-62
2021/12/04 00:20:43;;;;;;;;;5.50;2.50;;;;;11.42;82.46;99332.38;5030838;28;45060;-65
2021/12/04 00:23:08;;;;;;;;;0.67;0.00;;;;;11.47;82.94;99335.03;5031294;28;44950;-65
2021/12/04 00:25:34;;;;;;;;;0.00;0.00;;;;;11.46;82.14;99325.22;5030432;28;45236;-66
2021/12/04 00:27:59;;;;;;;;;1.75;1.75;;;;;11.50;82.95;99319.88;5028527;28;45201;-64
2021/12/04 00:30:26;;;;;;;;;1.00;1.00;;;;;11.52;82.07;99315.41;5024066;28;45264;-63
2021/12/04 00:33:15;;;;;;;;;2.50;2.50;;;;;11.59;82.98;99324.31;5031513;28;44986;-64
2021/12/04 00:35:46;;;;;;;;;1.00;0.00;;;;;11.62;82.61;99321.66;5030693;28;46736;-65
2021/12/04 00:49:17;;;;;;;;;3.00;3.00;;;;;11.81;81.94;99311.81;5021433;28;44897;-67
2021/12/04 00:51:46;;;;;;;;;0.00;0.00;;;;;11.71;82.61;99280.59;5030501;28;45174;-62
2021/12/04 00:54:12;;;;;;;;;2.00;0.00;;;;;11.68;82.17;99277.94;5031578;28;44868;-65
2021/12/04 00:56:42;;;;;;;;;1.00;1.00;;;;;11.88;81.32;99294.84;5045970;28;47196;-63
2021/12/04 00:59:12;;;;;;;;;5.50;4.00;;;;;11.77;81.86;99262.75;5031124;28;45023;-65
2021/12/04 01:01:39;;;;;;;;;8.25;6.00;;;;;11.97;82.37;99296.63;5029959;28;45384;-64
2021/12/04 01:04:09;;;;;;;;;3.50;3.50;;;;;11.96;81.34;99286.81;5032320;28;45146;-63
2021/12/04 01:06:35;;;;;;;;;1.00;1.00;;;;;12.01;81.81;99295.75;5033361;28;45100;-64
2021/12/04 01:09:00;;;;;;;;;1.00;0.00;;;;;12.04;81.68;99290.38;5034686;28;45062;-65
2021/12/04 01:11:25;;;;;;;;;1.67;1.67;;;;;12.09;80.78;99293.03;5034867;28;44950;-66
2021/12/04 01:13:51;;;;;;;;;0.00;0.00;;;;;12.12;81.05;99288.56;5034675;28;45028;-61
2021/12/04 01:16:16;;;;;;;;;1.00;0.00;;;;;12.14;80.45;99293.91;5032703;28;47547;-65
2021/12/04 01:18:43;;;;;;;;;1.00;1.00;;;;;11.66;80.57;99219.09;5034503;28;45009;-62
2021/12/04 01:21:09;;;;;;;;;16.25;14.25;;;;;12.06;80.99;99266.25;5026309;28;44954;-62
2021/12/04 01:23:35;;;;;;;;;2.33;1.67;;;;;12.22;81.60;99293.88;5014545;28;45172;-63
2021/12/04 01:26:00;;;;;;;;;1.00;1.00;;;;;11.90;81.15;99247.56;5028901;28;45304;-63
2021/12/04 01:28:26;;;;;;;;;0.00;0.00;;;;;12.25;81.68;99300.13;5034373;28;44950;-59
2021/12/04 01:30:51;;;;;;;;;1.00;0.00;;;;;12.24;80.92;99293.00;5034833;28;45238;-59
2021/12/04 01:33:16;;;;;;;;;0.00;0.00;;;;;12.20;82.13;99284.97;5035146;28;45177;-61
2021/12/04 01:35:41;;;;;;;;;0.67;0.00;;;;;12.20;81.74;99282.31;5034037;28;45008;-60
2021/12/04 01:38:07;;;;;;;;;3.00;3.00;;;;;12.16;81.86;99276.06;5033241;28;45184;-59
2021/12/04 01:40:32;;;;;;;;;0.00;0.00;;;;;12.13;81.38;99270.72;5018142;28;45082;-62
2021/12/04 01:42:58;;;;;;;;;0.00;0.00;;;;;12.20;82.30;99285.84;5030412;28;45199;-61
2021/12/04 01:45:23;;;;;;;;;1.67;0.00;;;;;12.30;82.37;99306.34;5022389;28;45155;-59
2021/12/04 01:47:48;;;;;;;;;2.00;0.00;;;;;12.24;82.03;99297.44;5034533;28;45098;-63
2021/12/04 01:50:14;;;;;;;;;1.33;1.33;;;;;12.32;82.39;99307.25;5034411;28;45070;-63
2021/12/04 01:52:39;;;;;;;;;0.00;0.00;;;;;12.33;82.49;99303.66;5035142;28;45087;-64
2021/12/04 01:55:06;;;;;;;;;1.00;1.00;;;;;12.28;82.61;99302.78;5032800;28;45160;-63
2021/12/04 01:57:32;;;;;;;;;0.67;0.33;;;;;12.32;82.00;99301.91;5015322;28;45048;-63
2021/12/04 01:59:57;;;;;;;;;0.67;0.67;;;;;12.32;82.24;99309.00;5014318;28;45059;-63
2021/12/04 02:02:23;;;;;;;;;2.67;1.00;;;;;12.33;81.97;99310.81;5014920;28;45013;-63
2021/12/04 02:04:48;;;;;;;;;1.00;0.00;;;;;12.34;81.46;99307.22;5026459;28;45767;-64
2021/12/04 02:07:15;;;;;;;;;0.00;0.00;;;;;12.35;82.52;99309.88;5033616;28;44922;-63
2021/12/04 02:09:41;;;;;;;;;0.00;0.00;;;;;12.35;81.77;99307.22;5032708;28;45135;-65
2021/12/04 02:12:08;;;;;;;;;0.33;0.33;;;;;12.20;82.28;99287.66;5028618;28;45101;-65
2021/12/04 02:14:35;;;;;;;;;0.00;0.00;;;;;12.38;81.73;99306.31;5032905;28;45790;-65
2021/12/04 02:17:01;;;;;;;;;0.00;0.00;;;;;12.23;81.89;99285.84;5032986;28;45256;-61
2021/12/04 02:19:27;;;;;;;;;5.00;2.00;;;;;12.02;82.14;99241.31;5033978;28;45012;-64
2021/12/04 02:21:52;;;;;;;;;0.00;0.00;;;;;12.27;82.49;99279.56;5025674;28;44965;-62
2021/12/04 02:24:17;;;;;;;;;3.00;2.00;;;;;12.45;81.44;99309.84;5024928;28;45128;-64
2021/12/04 02:26:43;;;;;;;;;0.00;0.00;;;;;12.46;81.86;99308.97;5033867;28;44977;-63
2021/12/04 02:29:08;;;;;;;;;0.00;0.00;;;;;12.45;81.42;99308.06;5033757;28;45137;-64
2021/12/04 02:31:34;;;;;;;;;0.00;0.00;;;;;12.38;82.24;99292.94;5033959;28;44850;-59
2021/12/04 02:33:59;;;;;;;;;3.00;1.33;;;;;12.38;82.07;99284.91;5034139;28;45714;-64
2021/12/04 02:36:25;;;;;;;;;2.33;0.67;;;;;12.53;80.89;99310.72;5033941;28;45305;-66
2021/12/04 02:38:51;;;;;;;;;0.33;0.33;;;;;12.52;81.03;99312.50;5033615;28;44961;-66
2021/12/04 02:41:19;;;;;;;;;3.00;0.00;;;;;12.43;81.29;99291.13;5031956;28;45187;-66
2021/12/04 02:43:45;;;;;;;;;1.00;1.00;;;;;12.54;80.92;99299.13;5025772;28;47341;-65
2021/12/04 02:46:12;;;;;;;;;1.67;1.67;;;;;12.62;80.24;99312.44;5033656;28;45148;-64
2021/12/04 02:48:37;;;;;;;;;4.00;2.00;;;;;12.63;80.66;99309.75;5033761;28;45060;-63
2021/12/04 02:51:03;;;;;;;;;4.00;0.33;;;;;12.65;79.75;99312.44;5033388;28;45025;-65
2021/12/04 02:53:29;;;;;;;;;2.00;0.33;;;;;12.67;79.37;99307.94;5033068;28;45941;-61
2021/12/04 02:55:54;;;;;;;;;1.00;1.00;;;;;12.58;79.46;99294.63;5033009;28;45088;-64
2021/12/04 02:58:20;;;;;;;;;1.33;1.33;;;;;12.65;79.66;99307.06;5033560;28;45094;-62
2021/12/04 03:00:50;;;;;;;;;7.25;5.50;;;;;12.68;79.92;99310.63;5033526;28;45037;-59
2021/12/04 03:03:18;;;;;;;;;0.33;0.00;;;;;12.65;80.20;99307.06;5029940;28;45137;-62
2021/12/04 03:05:51;;;;;;;;;5.25;5.25;;;;;12.70;80.17;99316.88;5032590;28;44870;-61
2021/12/04 03:08:17;;;;;;;;;6.33;5.33;;;;;12.57;79.25;99291.03;5032587;28;44890;-61
2021/12/04 03:10:43;;;;;;;;;4.00;3.00;;;;;12.61;79.49;99308.88;5032656;28;45067;-64
2021/12/04 03:13:10;;;;;;;;;0.00;0.00;;;;;12.69;79.66;99312.41;5028111;28;45482;-62
2021/12/04 03:15:43;;;;;;;;;1.00;1.00;;;;;12.70;78.77;99306.19;5027984;28;45186;-64
2021/12/04 03:18:09;;;;;;;;;1.00;1.00;;;;;12.70;79.21;99307.94;5033349;28;45248;-61
2021/12/04 03:20:41;;;;;;;;;1.67;1.00;;;;;12.65;79.80;99299.03;5032798;28;45091;-64
2021/12/04 03:23:12;;;;;;;;;1.00;1.00;;;;;12.69;79.60;99300.81;5032989;28;46393;-66
2021/12/04 03:25:38;;;;;;;;;0.00;0.00;;;;;12.70;79.45;99308.84;5032023;28;45060;-63
2021/12/04 03:28:06;;;;;;;;;1.00;1.00;;;;;12.71;79.19;99315.09;5032849;28;44985;-66
2021/12/04 03:30:46;;;;;;;;;1.00;1.00;;;;;12.64;79.65;99308.88;5033528;28;45045;-64
2021/12/04 03:41:08;;;;;;;;;3.50;3.50;;;;;12.73;79.47;99314.16;5032812;28;45040;-65
2021/12/04 03:43:34;;;;;;;;;1.00;1.00;;;;;12.73;79.78;99306.13;5032600;28;45585;-63
2021/12/04 03:46:02;;;;;;;;;4.00;1.00;;;;;12.75;79.01;99314.16;5032883;28;45158;-64
2021/12/04 03:48:50;;;;;;;;;1.33;1.33;;;;;12.77;78.81;99311.47;5032237;28;45128;-62
2021/12/04 03:51:14;;;;;;;;;1.00;1.00;;;;;12.71;78.77;99299.00;5027825;28;45480;-63
2021/12/04 03:53:40;;;;;;;;;4.00;4.00;;;;;12.69;78.61;99296.34;5033093;28;45604;-62
2021/12/04 03:56:06;;;;;;;;;1.00;1.00;;;;;12.67;78.34;99289.19;5032870;28;45012;-61
2021/12/04 03:58:32;;;;;;;;;0.67;0.67;;;;;12.67;77.95;99278.47;5032561;28;45207;-64
2021/12/04 04:00:57;;;;;;;;;1.00;0.00;;;;;12.36;77.95;99230.44;5032588;28;45087;-61
2021/12/04 04:03:25;;;;;;;;;2.00;0.67;;;;;12.83;77.60;99298.94;5033127;28;45666;-65
2021/12/04 04:05:50;;;;;;;;;2.00;1.00;;;;;12.83;77.39;99301.59;5032320;28;45116;-62
2021/12/04 04:08:17;;;;;;;;;10.50;9.50;;;;;12.84;77.82;99307.88;5031951;28;44887;-62
2021/12/04 04:10:43;;;;;;;;;1.00;1.00;;;;;12.84;77.15;99299.84;5020701;28;44922;-65
2021/12/04 04:13:11;;;;;;;;;1.00;1.00;;;;;12.71;76.67;99274.91;5011717;28;45598;-63
2021/12/04 04:15:37;;;;;;;;;1.67;1.00;;;;;12.86;76.99;99304.28;5011546;28;45179;-63
2021/12/04 04:18:03;;;;;;;;;0.00;0.00;;;;;12.85;76.99;99309.63;5012855;28;44941;-64
2021/12/04 04:20:29;;;;;;;;;2.33;2.00;;;;;12.72;76.02;99295.44;5031126;28;45174;-65
2021/12/04 04:22:54;;;;;;;;;4.00;1.00;;;;;12.73;75.86;99292.72;5031038;28;45071;-65
2021/12/04 04:25:19;;;;;;;;;3.33;1.00;;;;;12.79;76.14;99294.50;5030415;28;45185;-65
2021/12/04 04:27:45;;;;;;;;;0.00;0.00;;;;;12.91;76.47;99301.56;5031985;28;45115;-60
2021/12/04 04:30:15;;;;;;;;;0.33;0.33;;;;;12.86;76.15;99290.88;5032616;28;44903;-60
2021/12/04 04:32:42;;;;;;;;;0.67;0.67;;;;;12.93;75.70;99301.56;5031956;28;45498;-62
2021/12/04 04:35:10;;;;;;;;;2.33;2.00;;;;;12.95;76.19;99310.47;5032191;28;45017;-64
2021/12/04 04:59:18;;;;;;;;;0.00;0.00;;;;;12.94;77.19;99306.03;5035040;28;45016;-65
2021/12/04 05:16:11;;;;;;;;;1.33;1.33;;;;;12.92;76.80;99279.25;5034485;28;45230;-63
2021/12/04 05:18:18;;;;;;;;;0.00;0.00;;;;;12.94;76.39;99288.16;5022490;28;45101;-63
2021/12/04 05:20:50;;;;;;;;;2.00;2.00;;;;;12.80;75.85;99261.44;5029100;28;45061;-62
2021/12/04 05:23:15;;;;;;;;;0.00;0.00;;;;;12.75;76.11;99265.94;5035332;28;44918;-66
2021/12/04 05:25:41;;;;;;;;;0.00;0.00;;;;;12.68;76.05;99250.78;5034984;28;45495;-61
2021/12/04 05:28:07;;;;;;;;;0.00;0.00;;;;;12.87;76.32;99287.31;5034773;28;45209;-64
2021/12/04 05:30:34;;;;;;;;;1.33;1.33;;;;;12.85;76.68;99288.19;5035045;28;45241;-63
2021/12/04 05:33:00;;;;;;;;;0.00;0.00;;;;;12.84;75.62;99281.97;5033080;28;44974;-64
2021/12/04 05:35:26;;;;;;;;;1.00;0.00;;;;;12.88;74.91;99289.06;5032770;28;45726;-65
2021/12/04 05:37:51;;;;;;;;;1.00;1.00;;;;;12.89;75.74;99285.50;5029729;28;44911;-65
2021/12/04 05:40:17;;;;;;;;;0.00;0.00;;;;;12.85;75.33;99277.47;5034929;28;45247;-61
2021/12/04 05:42:43;;;;;;;;;0.00;0.00;;;;;12.52;75.91;99224.13;5034722;28;45060;-61
2021/12/04 05:45:17;;;;;;;;;1.00;1.00;;;;;12.93;74.75;99285.47;5034555;28;45436;-65
2021/12/04 05:48:09;;;;;;;;;1.00;1.00;;;;;12.81;75.24;99273.94;5033405;28;44921;-64
2021/12/04 05:53:16;;;;;;;;;0.00;0.00;;;;;12.87;74.64;99289.09;5018669;28;45362;-64
2021/12/04 05:55:52;;;;;;;;;0.33;0.33;;;;;12.83;74.16;99290.00;5013773;28;45783;-63
2021/12/04 05:58:27;;;;;;;;;0.00;0.00;;;;;12.84;74.32;99300.72;5014851;28;45288;-64
2021/12/04 06:00:56;;;;;;;;;0.67;0.33;;;;;12.83;74.16;99295.38;5015086;28;45163;-64
2021/12/04 06:03:22;;;;;;;;;0.00;0.00;;;;;12.82;74.74;99289.13;5015496;28;45290;-65
2021/12/04 06:05:47;;;;;;;;;0.00;0.00;;;;;12.83;74.04;99292.69;5033873;28;45919;-63
2021/12/04 06:08:13;;;;;;;;;0.00;0.00;;;;;12.72;73.98;99263.28;5029238;28;45188;-64
2021/12/04 06:10:40;;;;;;;;;0.00;0.00;;;;;12.81;73.96;99281.09;5034029;28;45212;-65
2021/12/04 06:13:05;;;;;;;;;1.00;1.00;;;;;12.78;74.89;99279.31;5034279;28;45005;-64
2021/12/04 06:15:31;;;;;;;;;0.00;0.00;;;;;12.81;74.09;99290.00;5033452;28;45396;-62
2021/12/04 06:17:57;;;;;;;;;1.00;0.33;;;;;12.81;75.33;99291.81;5034011;28;45227;-62
2021/12/04 06:23:07;;;;;;;;;1.00;1.00;;;;;12.80;74.76;99280.22;5034014;28;44977;-63
2021/12/04 06:25:33;;;;;;;;;1.00;1.00;;;;;12.80;74.14;99277.53;5025630;28;45109;-65
2021/12/04 06:27:58;;;;;;;;;1.00;1.00;;;;;12.81;74.32;99281.09;5033765;28;45207;-62
2021/12/04 06:30:25;;;;;;;;;0.00;0.00;;;;;12.81;73.98;99271.25;5033012;28;45079;-65
2021/12/04 06:32:53;;;;;;;;;0.00;0.00;;;;;12.81;74.00;99263.22;5034008;28;45012;-67
2021/12/04 06:35:20;;;;;;;;;0.33;0.33;;;;;12.84;74.15;99265.88;5033391;28;45137;-64
2021/12/04 06:37:48;;;;;;;;;0.00;0.00;;;;;12.86;74.63;99256.03;5033694;28;45109;-64
2021/12/04 06:40:14;;;;;;;;;1.00;1.00;;;;;12.87;73.51;99259.63;5033723;28;45202;-63
2021/12/04 06:42:41;;;;;;;;;0.00;0.00;;;;;12.83;73.48;99261.41;5028794;28;45245;-64
2021/12/04 06:45:07;;;;;;;;;1.00;1.00;;;;;12.84;74.30;99260.50;5032907;28;45231;-66
2021/12/04 06:47:33;;;;;;;;;0.00;0.00;;;;;12.89;74.41;99263.16;5032274;28;45021;-65
2021/12/04 06:50:09;;;;;;;;;1.00;0.00;;;;;12.89;74.39;99258.69;5033030;28;45043;-64
2021/12/04 06:52:35;;;;;;;;;3.00;2.00;;;;;12.90;74.11;99255.13;5033621;28;45191;-64
2021/12/04 06:55:02;;;;;;;;;1.67;1.00;;;;;12.81;73.94;99236.41;5031576;28;46879;-63
2021/12/04 06:57:29;;;;;;;;;0.00;0.00;;;;;12.96;74.50;99262.22;5030955;28;45161;-61
2021/12/04 06:59:56;;;;;;;;;0.00;0.00;;;;;13.00;73.94;99255.03;5013890;28;45246;-64
2021/12/04 07:02:23;;;;;;;;;0.67;0.67;;;;;12.92;74.58;99233.66;5013325;28;44988;-66
2021/12/04 07:04:49;;;;;;;;;0.00;0.00;;;;;13.04;74.07;99233.56;5030558;28;45885;-63
2021/12/04 07:07:15;;;;;;;;;5.75;4.75;;;;;13.05;74.11;99243.38;5033294;28;44940;-62
2021/12/04 07:09:42;;;;;;;;;0.33;0.33;;;;;13.00;74.15;99233.59;5033700;28;45302;-64
2021/12/04 07:12:10;;;;;;;;;1.67;1.67;;;;;13.05;74.84;99246.06;5032702;28;45040;-61
2021/12/04 07:14:36;;;;;;;;;1.33;0.00;;;;;12.97;74.83;99217.53;5028599;28;46317;-65
2021/12/04 07:17:03;;;;;;;;;2.00;2.00;;;;;13.00;75.53;99230.91;5013490;28;44848;-60
2021/12/04 07:19:31;;;;;;;;;1.00;1.00;;;;;13.03;75.35;99233.56;5016247;28;45184;-61
2021/12/04 07:21:57;;;;;;;;;2.33;1.00;;;;;13.02;76.19;99240.72;5032787;28;45276;-61
2021/12/04 07:24:22;;;;;;;;;0.00;0.00;;;;;13.02;76.21;99235.38;5032771;28;46421;-64
2021/12/04 07:26:48;;;;;;;;;0.67;0.67;;;;;13.01;76.68;99230.91;5033025;28;45057;-63
2021/12/04 07:29:13;;;;;;;;;0.00;0.00;;;;;12.94;77.21;99218.44;5032836;28;45409;-64
2021/12/04 07:31:39;;;;;;;;;0.33;0.33;;;;;12.98;76.37;99233.59;5028410;28;45128;-65
2021/12/04 07:34:05;;;;;;;;;1.00;1.00;;;;;12.97;76.56;99228.25;5031233;28;45172;-64
2021/12/04 07:36:31;;;;;;;;;1.00;1.00;;;;;12.96;76.67;99234.53;5032248;28;45198;-65
2021/12/04 07:38:59;;;;;;;;;1.00;1.00;;;;;12.87;76.81;99220.28;5033322;28;45028;-64
2021/12/04 07:41:26;;;;;;;;;1.00;1.00;;;;;12.53;77.76;99158.03;5031471;28;45075;-65
2021/12/04 07:43:52;;;;;;;;;1.33;0.67;;;;;12.93;77.04;99235.44;5032778;28;45136;-65
2021/12/04 07:46:17;;;;;;;;;2.00;2.00;;;;;12.98;76.79;99219.31;5026403;28;45423;-65
2021/12/04 07:48:43;;;;;;;;;1.67;0.00;;;;;13.02;77.38;99235.38;5028968;28;45178;-64
2021/12/04 07:51:09;;;;;;;;;2.00;0.00;;;;;13.04;77.96;99238.03;5011448;28;45021;-64
2021/12/04 07:53:35;;;;;;;;;0.67;0.67;;;;;13.01;76.96;99244.28;5017269;28;45672;-67
2021/12/04 07:56:01;;;;;;;;;1.00;1.00;;;;;12.98;77.30;99241.63;5023488;28;45266;-64
2021/12/04 07:58:26;;;;;;;;;2.67;1.00;;;;;12.88;78.13;99235.44;5026504;28;45318;-62
2021/12/04 08:00:52;;;;;;;;;0.67;0.67;;;;;12.61;77.79;99187.44;5032583;28;45080;-67
2021/12/04 08:03:17;;;;;;;;;0.00;0.00;;;;;12.46;78.15;99175.03;5032511;28;45734;-60
2021/12/04 08:05:43;;;;;;;;;1.00;1.00;;;;;12.89;78.22;99247.97;5028172;28;45107;-64
2021/12/04 08:08:10;;;;;;;;;1.00;0.33;;;;;12.90;78.87;99247.06;5032272;28;44926;-61
2021/12/04 08:10:36;;;;;;;;;3.75;3.00;;;;;12.90;77.99;99249.75;5029101;28;45503;-63
2021/12/04 08:13:03;;;;;;;;;0.00;0.00;;;;;12.89;78.17;99245.28;5031072;28;46189;-63
2021/12/04 08:15:29;;;;;;;;;0.00;0.00;;;;;12.85;78.91;99248.00;5030409;28;45217;-64
2021/12/04 08:17:55;;;;;;;;;1.00;1.00;;;;;12.67;78.71;99236.53;5030513;28;45226;-67
2021/12/04 08:20:20;;;;;;;;;3.00;0.00;;;;;12.76;79.54;99258.78;5031038;28;45177;-63
2021/12/04 08:22:46;;;;;;;;;0.00;0.00;;;;;12.80;78.58;99247.13;5019858;28;45143;-62
2021/12/04 08:25:14;;;;;;;;;0.00;0.00;;;;;12.43;78.19;99188.44;5012221;28;44906;-65
2021/12/04 08:27:39;;;;;;;;;2.00;0.00;;;;;12.78;77.57;99268.59;5021013;28;45015;-66
2021/12/04 08:30:08;;;;;;;;;0.00;0.00;;;;;12.68;78.63;99262.38;5031945;28;45096;-62
2021/12/04 08:32:34;;;;;;;;;0.00;0.00;;;;;12.16;78.58;99190.41;5030089;28;46128;-63
2021/12/04 08:34:59;;;;;;;;;0.00;0.00;;;;;12.57;79.44;99268.72;5031147;28;45189;-60
2021/12/04 08:37:24;;;;;;;;;0.33;0.33;;;;;12.54;78.95;99267.84;5028239;28;44876;-64
2021/12/04 08:39:50;;;;;;;;;0.67;0.67;;;;;12.57;77.79;99269.59;5030386;28;45053;-63
2021/12/04 08:42:16;;;;;;;;;1.00;1.00;;;;;12.50;78.15;99266.06;5031468;28;45449;-64
2021/12/04 08:44:43;;;;;;;;;0.00;0.00;;;;;12.46;77.12;99258.09;5031603;28;45111;-64
2021/12/04 08:47:09;;;;;;;;;0.00;0.00;;;;;12.30;76.43;99244.75;5028407;28;45222;-69
2021/12/04 08:49:34;;;;;;;;;1.00;0.00;;;;;12.37;76.55;99250.06;5029001;28;45431;-69
2021/12/04 08:52:03;;;;;;;;;1.00;1.00;;;;;12.49;74.17;99292.88;5031870;28;45163;-67
2021/12/04 08:54:29;;;;;;;;;0.00;0.00;;;;;12.30;75.38;99263.50;5026566;28;45095;-68
2021/12/04 08:56:54;;;;;;;;;0.00;0.00;;;;;12.21;74.62;99251.94;5031187;28;45066;-64
2021/12/04 08:59:20;;;;;;;;;0.33;0.33;;;;;12.30;73.81;99276.88;5031586;28;45024;-62
2021/12/04 09:01:46;;;;;;;;;0.00;0.00;;;;;12.47;73.04;99314.31;5030940;28;45861;-64
2021/12/04 09:04:16;;;;;;;;;0.00;0.00;;;;;12.40;72.31;99309.88;5031044;28;45186;-66
2021/12/04 09:06:42;;;;;;;;;1.00;0.00;;;;;12.29;71.70;99283.16;5031746;28;45118;-68
2021/12/04 09:09:11;;;;;;;;;1.00;0.00;;;;;12.43;71.89;99309.88;5030114;28;44959;-68
2021/12/04 09:11:52;;;;;;;;;0.00;0.00;;;;;12.39;71.35;99312.56;5011941;28;45577;-65
2021/12/04 09:14:22;;;;;;;;;0.00;0.00;;;;;12.42;70.28;99333.97;5011001;28;45160;-68
2021/12/04 09:16:52;;;;;;;;;0.00;0.00;;;;;12.16;70.34;99295.69;5010898;28;44948;-65
2021/12/04 09:19:18;;;;;;;;;0.00;0.00;;;;;12.04;69.15;99284.13;5012060;28;45125;-66
2021/12/04 09:21:45;;;;;;;;;0.67;0.00;;;;;12.05;69.49;99305.53;5010606;28;47678;-66
2021/12/04 09:24:14;;;;;;;;;0.00;0.00;;;;;12.27;68.40;99335.81;5014187;28;45157;-68
2021/12/04 10:05:19;;;;;;;;;1.00;0.00;;;;;12.07;63.70;99372.47;5032467;28;45495;-65
2021/12/04 10:17:53;;;;;;;;;0.00;0.00;;;;;12.20;62.59;99398.31;5032837;28;45038;-70
2021/12/04 10:20:35;;;;;;;;;1.00;1.00;;;;;12.45;63.35;99425.03;5033177;28;45167;-67
2021/12/04 10:33:55;;;;;;;;;1.00;1.00;;;;;12.70;63.00;99421.41;5031863;28;45105;-67
2021/12/04 10:36:36;;;;;;;;;1.33;1.33;;;;;12.72;62.39;99424.97;5032361;28;45140;-69
2021/12/04 10:39:04;;;;;;;;;0.00;0.00;;;;;12.89;61.68;99438.28;5032912;28;45227;-68
2021/12/04 10:41:39;;;;;;;;;1.00;1.00;;;;;12.89;60.73;99450.81;5033075;28;44919;-69
2021/12/04 10:44:11;;;;;;;;;10.00;5.33;;;;;12.93;60.35;99465.97;5024392;28;45136;-68
2021/12/04 10:46:37;;;;;;;;;1.00;1.00;;;;;12.77;60.01;99440.13;5021776;28;45523;-68
2021/12/04 10:49:09;;;;;;;;;1.00;1.00;;;;;12.82;59.63;99462.44;5032086;28;45164;-70
2021/12/04 10:52:02;;;;;;;;;9.75;6.50;;;;;12.59;60.58;99436.63;5032626;28;45163;-69
2021/12/04 10:54:31;;;;;;;;;3.00;1.00;;;;;12.67;60.82;99456.25;5031896;28;45191;-67
2021/12/04 11:00:07;;;;;;;;;1.00;1.00;;;;;12.77;60.22;99456.19;5028795;28;45190;-69
2021/12/04 11:02:40;;;;;;;;;1.00;0.00;;;;;12.84;59.49;99479.41;5011777;28;45034;-67
2021/12/04 11:19:41;;;;;;;;;5.00;2.00;;;;;12.60;61.38;99464.28;5010684;28;45091;-67
2021/12/04 11:25:37;;;;;;;;;2.33;2.33;;;;;12.62;61.16;99457.13;5010923;28;45158;-69
2021/12/04 11:44:47;;;;;;;;;1.00;1.00;;;;;11.87;64.75;99530.34;5011728;28;44949;-69
2021/12/04 11:46:56;;;;;;;;;4.67;1.67;;;;;11.93;65.93;99528.63;5012794;28;45179;-69
2021/12/04 11:49:25;;;;;;;;;4.00;2.00;;;;;11.98;64.71;99540.22;5011792;28;45012;-69
2021/12/04 11:52:02;;;;;;;;;3.67;3.00;;;;;11.94;64.89;99529.50;5016038;28;45650;-70
2021/12/04 11:54:41;;;;;;;;;3.00;3.00;;;;;12.09;64.15;99555.38;5011005;28;45118;-68
2021/12/04 11:57:10;;;;;;;;;2.00;0.00;;;;;12.16;63.28;99555.41;5012043;28;45020;-69
2021/12/04 11:59:39;;;;;;;;;4.75;4.75;;;;;12.17;64.30;99551.81;5011779;28;45101;-68
2021/12/04 12:02:08;;;;;;;;;3.00;3.00;;;;;12.10;63.99;99528.63;5011472;28;46977;-70
2021/12/04 12:04:40;;;;;;;;;2.33;2.33;;;;;12.29;63.60;99545.59;5011877;28;44902;-69
2021/12/04 12:07:24;;;;;;;;;7.50;5.75;;;;;12.33;63.72;99557.19;5028029;28;45183;-67
2021/12/04 12:10:07;;;;;;;;;11.25;6.00;;;;;12.43;64.29;99555.41;5046232;28;45166;-68
2021/12/04 12:12:35;;;;;;;;;15.00;12.25;;;;;12.50;63.68;99566.09;5030804;28;45686;-69
2021/12/04 12:15:05;;;;;;;;;5.75;4.25;;;;;12.39;62.15;99529.50;5031183;28;44959;-68
2021/12/04 12:17:34;;;;;;;;;10.00;8.50;;;;;12.51;62.05;99572.38;5031207;28;44833;-70
2021/12/04 12:20:03;;;;;;;;;5.00;2.50;;;;;12.52;60.33;99563.44;5031884;28;45159;-68
2021/12/04 12:25:17;;;;;;;;;9.50;8.50;;;;;12.31;59.50;99577.75;5020221;28;45299;-67
2021/12/04 12:36:12;;;;;;;;;5.25;3.50;;;;;12.01;58.75;99597.31;5008120;28;45360;-69
2021/12/04 12:38:53;;;;;;;;;9.25;6.25;;;;;12.04;59.32;99624.09;5010577;28;45013;-70
2021/12/04 12:41:42;;;;;;;;;8.00;5.25;;;;;11.85;57.60;99610.66;5012628;28;45454;-69
2021/12/04 12:44:26;;;;;;;;;6.75;3.75;;;;;11.75;58.06;99615.06;5029146;28;46160;-68
2021/12/04 12:46:58;;;;;;;;;5.50;4.00;;;;;11.82;58.76;99626.69;5029575;28;45137;-70
2021/12/04 12:49:33;;;;;;;;;5.00;3.50;;;;;12.05;57.58;99652.66;5029361;28;45299;-70
2021/12/04 12:52:09;;;;;;;;;3.75;3.75;;;;;11.94;56.88;99641.91;5026920;28;45437;-69
2021/12/04 12:54:43;;;;;;;;;5.00;2.75;;;;;11.87;57.43;99654.34;5027855;28;45812;-68
2021/12/04 12:57:12;;;;;;;;;7.00;6.00;;;;;11.90;58.05;99656.16;5028522;28;45319;-68
2021/12/04 13:11:35;;;;;;;;;5.00;5.00;;;;;11.80;56.73;99660.59;5015990;28;45176;-69
2021/12/04 13:11:42;;;;;;;;;10.00;10.00;;;;;11.56;57.34;99640.84;5012466;28;45033;-68
2021/12/04 13:14:25;;;;;;;;;4.00;3.00;;;;;11.66;56.64;99651.59;5010832;28;45219;-68
2021/12/04 13:16:58;;;;;;;;;7.00;5.00;;;;;11.79;56.91;99672.16;5026605;28;47210;-66
2021/12/04 13:19:25;;;;;;;;;4.25;3.00;;;;;11.74;55.85;99664.09;5033485;28;45092;-68
2021/12/04 13:21:57;;;;;;;;;6.25;4.00;;;;;11.68;56.02;99642.72;5033852;28;45082;-67
2021/12/04 13:24:27;;;;;;;;;5.50;4.00;;;;;11.83;56.45;99673.06;5032911;28;45270;-64
2021/12/04 13:26:54;;;;;;;;;6.75;5.50;;;;;11.68;56.95;99625.72;5031930;28;46341;-69
2021/12/04 13:29:26;;;;;;;;;5.25;3.00;;;;;11.86;54.32;99673.09;5032012;28;45088;-70
2021/12/04 13:31:56;;;;;;;;;3.25;2.00;;;;;11.70;54.10;99670.34;5032158;28;45030;-67
2021/12/04 13:34:27;;;;;;;;;4.25;3.00;;;;;11.76;54.95;99678.41;5020076;28;45131;-67
2021/12/04 13:36:53;;;;;;;;;3.75;2.50;;;;;11.75;53.67;99667.69;5013830;28;45077;-67
2021/12/04 13:39:31;;;;;;;;;4.75;2.00;;;;;11.55;52.23;99665.81;5011185;28;45315;-68
2021/12/04 13:41:58;;;;;;;;;6.25;5.00;;;;;11.51;53.90;99666.69;5011270;28;45467;-68
2021/12/04 13:44:26;;;;;;;;;5.00;4.00;;;;;11.71;53.69;99689.97;5010842;28;45034;-68
2021/12/04 13:46:55;;;;;;;;;13.00;10.25;;;;;11.24;52.34;99608.63;5011631;28;45433;-68
2021/12/04 13:49:26;;;;;;;;;6.75;5.00;;;;;11.68;51.77;99653.41;5011786;28;45430;-66
2021/12/04 13:51:54;;;;;;;;;3.00;1.75;;;;;11.80;51.22;99658.78;5024923;28;45230;-68
2021/12/04 13:54:21;;;;;;;;;6.00;2.00;;;;;11.73;51.30;99640.03;5034434;28;44898;-69
2021/12/04 13:56:47;;;;;;;;;7.00;4.75;;;;;11.74;50.48;99639.16;5032810;28;45401;-69
2021/12/04 13:59:14;;;;;;;;;23.50;16.75;;;;;11.83;50.25;99640.94;5031547;28;45054;-68
2021/12/04 14:01:42;;;;;;;;;21.25;20.25;;;;;12.12;51.34;99659.81;5030533;28;45064;-69
2021/12/04 14:04:20;;;;;;;;;6.50;1.75;;;;;12.38;50.14;99656.31;5030729;28;45071;-67
2021/12/04 14:06:56;;;;;;;;;7.75;7.00;;;;;12.38;49.71;99645.59;5029976;28;45665;-66
2021/12/04 14:09:24;;;;;;;;;5.25;4.50;;;;;12.76;49.02;99659.00;5015599;28;45060;-67
2021/12/04 14:11:52;;;;;;;;;3.00;2.00;;;;;12.80;48.57;99668.84;5013797;28;44957;-65
2021/12/04 14:14:20;;;;;;;;;4.33;2.33;;;;;12.81;48.28;99667.94;5013584;28;45009;-69
2021/12/04 14:16:51;;;;;;;;;6.00;4.00;;;;;12.70;47.92;99665.25;5010981;28;45298;-68
2021/12/04 14:19:24;;;;;;;;;1.67;1.67;;;;;12.72;47.44;99670.63;5009820;28;45226;-69
2021/12/04 14:22:11;;;;;;;;;5.75;4.75;;;;;12.70;48.24;99684.03;5011225;28;45467;-68
2021/12/04 14:25:03;;;;;;;;;5.75;3.00;;;;;12.51;47.37;99693.81;5010836;28;45036;-68
2021/12/04 14:27:34;;;;;;;;;5.67;2.33;;;;;12.37;49.44;99684.84;5024270;28;46345;-68
2021/12/04 14:30:07;;;;;;;;;6.25;3.00;;;;;12.07;48.88;99661.59;5033220;28;45136;-68
2021/12/04 14:32:34;;;;;;;;;3.33;3.00;;;;;11.97;49.05;99674.94;5032166;28;45041;-68
2021/12/04 14:35:03;;;;;;;;;3.75;2.25;;;;;11.92;47.69;99699.91;5031896;28;45030;-70
2021/12/04 14:37:34;;;;;;;;;7.25;4.00;;;;;11.91;48.67;99711.47;5030517;28;46047;-67